Time;durP1;ratioP1;P1;durP2;ratioP2;P2;SDS_P1;SDS_P2;PMS_P1;PMS_P2;Temp;Humidity;BMP_temperature;BMP_pressure;BME280_temperature;BME280_humidity;BME280_pressure;Samples;Min_cycle;Max_cycle;Signal;HPM_P1;HPM_P2
2022/10/31 00:02:06;;;;;;;;;;;;;;;9.03;100.00;100099.38;4956513;28;19922;-85
2022/10/31 00:04:31;;;;;;;;;;;;;;;9.07;100.00;100100.97;4973835;28;19918;-84
2022/10/31 00:07:05;;;;;;;;;;;;;;;9.10;100.00;100097.38;4973883;28;19918;-86
2022/10/31 00:09:35;;;;;;;;;;;;;;;9.13;100.00;100097.28;4956682;28;19918;-86
2022/10/31 00:12:03;;;;;;;;;;;;;;;9.15;100.00;100090.16;4956200;28;19965;-85
2022/10/31 00:14:39;;;;;;;;;;;;;;;9.17;100.00;100083.03;4972477;28;19937;-86
2022/10/31 00:17:04;;;;;;;;;;;;;;;9.22;100.00;100086.44;4965072;28;19918;-83
2022/10/31 00:19:30;;;;;;;;;;;;;;;9.24;100.00;100084.59;4971542;28;19918;-84
2022/10/31 00:22:00;;;;;;;;;;;;;;;9.28;100.00;100080.06;4971458;28;19953;-84
2022/10/31 00:24:25;;;;;;;;;;;;;;;9.29;100.00;100076.50;4967446;28;19922;-84
2022/10/31 00:26:53;;;;;;;;;;;;;;;9.32;100.00;100080.81;4966870;28;20391;-85
2022/10/31 00:29:19;;;;;;;;;;;;;;;9.35;100.00;100081.59;4953943;28;19933;-83
2022/10/31 00:31:44;;;;;;;;;;;;;;;9.37;100.00;100084.19;4973752;28;19930;-85
2022/10/31 00:34:09;;;;;;;;;;;;;;;9.38;100.00;100081.50;4961363;28;20073;-84
2022/10/31 00:36:34;;;;;;;;;;;;;;;9.41;100.00;100083.16;4975222;28;20338;-84
2022/10/31 00:39:01;;;;;;;;;;;;;;;9.45;100.00;100082.16;4966089;28;20425;-84
2022/10/31 00:41:28;;;;;;;;;;;;;;;9.47;100.00;100076.81;4971245;28;20069;-84
2022/10/31 00:43:54;;;;;;;;;;;;;;;9.50;100.00;100080.22;4966135;28;19926;-84
2022/10/31 00:46:19;;;;;;;;;;;;;;;9.51;100.00;100081.94;4969777;28;19933;-84
2022/10/31 00:48:47;;;;;;;;;;;;;;;9.52;100.00;100082.81;4966532;28;19933;-84
2022/10/31 00:51:13;;;;;;;;;;;;;;;9.56;100.00;100080.00;4968527;28;19918;-84
2022/10/31 00:53:38;;;;;;;;;;;;;;;9.57;100.00;100068.50;4969883;28;19986;-84
2022/10/31 03:25:19;;;;;;;;;;;;;;;10.37;100.00;100003.91;4994210;28;19968;-83
2022/10/31 03:27:46;;;;;;;;;;;;;;;10.39;100.00;100012.63;4994761;28;19926;-84
2022/10/31 03:30:11;;;;;;;;;;;;;;;10.41;100.00;100016.09;4994531;28;19918;-82
2022/10/31 03:32:47;;;;;;;;;;;;;;;10.43;100.00;100005.44;4994504;28;19917;-82
2022/10/31 03:35:15;;;;;;;;;;;;;;;10.44;100.00;100009.81;4994451;28;19953;-82
2022/10/31 03:37:41;;;;;;;;;;;;;;;10.43;100.00;100008.94;4993230;28;19918;-83
2022/10/31 03:40:08;;;;;;;;;;;;;;;10.46;100.00;100015.91;4976886;28;19960;-84
2022/10/31 03:42:36;;;;;;;;;;;;;;;10.47;100.00;100013.22;4994375;28;20436;-83
2022/10/31 03:45:04;;;;;;;;;;;;;;;10.49;100.00;100007.84;4994326;28;19918;-82
2022/10/31 03:47:30;;;;;;;;;;;;;;;10.49;100.00;100007.84;4994325;28;19922;-89
2022/10/31 03:49:56;;;;;;;;;;;;;;;10.50;100.00;100006.94;4976736;28;20004;-84
2022/10/31 03:52:31;;;;;;;;;;;;;;;10.50;100.00;100004.28;4992832;28;19925;-85
2022/10/31 03:54:59;;;;;;;;;;;;;;;10.51;100.00;100006.00;4976867;28;19918;-84
2022/10/31 03:57:51;;;;;;;;;;;;;;;10.52;100.00;100010.38;4994043;28;19918;-87
2022/10/31 04:00:17;;;;;;;;;;;;;;;10.56;100.00;100008.47;4983049;28;20404;-84
2022/10/31 04:02:46;;;;;;;;;;;;;;;10.54;100.00;100005.88;4976723;28;19937;-84
2022/10/31 04:05:13;;;;;;;;;;;;;;;10.56;100.00;100008.47;4993380;28;19918;-84
2022/10/31 04:07:41;;;;;;;;;;;;;;;10.55;100.00;100012.91;4992744;28;20369;-84
2022/10/31 04:10:10;;;;;;;;;;;;;;;10.58;100.00;100009.25;4976509;28;19921;-83
2022/10/31 04:12:39;;;;;;;;;;;;;;;10.61;100.00;100014.44;4993952;28;19921;-84
2022/10/31 04:15:05;;;;;;;;;;;;;;;10.59;100.00;100009.19;4993797;28;20013;-84
2022/10/31 04:17:32;;;;;;;;;;;;;;;10.62;100.00;100016.19;4976408;28;19944;-84
2022/10/31 04:20:01;;;;;;;;;;;;;;;10.63;100.00;100009.97;4993907;28;19969;-84
2022/10/31 04:22:26;;;;;;;;;;;;;;;10.63;100.00;100009.97;4992514;28;19976;-84
2022/10/31 04:24:51;;;;;;;;;;;;;;;10.64;100.00;100004.59;4960717;28;19921;-84
2022/10/31 04:27:17;;;;;;;;;;;;;;;10.66;100.00;99999.25;4974240;28;20304;-84
2022/10/31 04:29:42;;;;;;;;;;;;;;;10.66;100.00;100005.41;4974243;28;19918;-85
2022/10/31 08:55:23;;;;;;;;;;;;;;;6.23;100.00;99935.47;4997613;28;19928;-84
2022/10/31 08:57:50;;;;;;;;;;;;;;;6.20;100.00;99928.47;4997348;28;19961;-89
2022/10/31 09:00:16;;;;;;;;;;;;;;;6.21;100.00;99932.84;4979831;28;19918;-89
2022/10/31 09:02:41;;;;;;;;;;;;;;;6.19;100.00;99924.16;4997410;28;19917;-89
2022/10/31 09:05:06;;;;;;;;;;;;;;;6.22;100.00;99923.19;4979590;28;20416;-84
2022/10/31 09:07:32;;;;;;;;;;;;;;;6.23;100.00;99931.03;4996127;28;19967;-84
2022/10/31 09:09:57;;;;;;;;;;;;;;;6.21;100.00;99927.59;4997222;28;19918;-84
2022/10/31 09:12:23;;;;;;;;;;;;;;;6.20;100.00;99928.47;4997333;28;20395;-84
2022/10/31 09:14:49;;;;;;;;;;;;;;;6.19;100.00;99926.78;4979745;28;19924;-84
2022/10/31 09:17:14;;;;;;;;;;;;;;;6.18;100.00;99918.00;4997126;28;20008;-84
2022/10/31 09:19:39;;;;;;;;;;;;;;;6.23;100.00;99919.66;4997076;28;19925;-85
2022/10/31 09:22:04;;;;;;;;;;;;;;;6.23;100.00;99914.41;4995680;28;20365;-85
2022/10/31 09:24:29;;;;;;;;;;;;;;;6.19;100.00;99916.25;4994476;28;19968;-84
2022/10/31 09:26:55;;;;;;;;;;;;;;;6.19;100.00;99913.63;4986573;28;19922;-84
2022/10/31 09:29:20;;;;;;;;;;;;;;;6.19;100.00;99918.88;4978525;28;19922;-84
2022/10/31 09:31:56;;;;;;;;;;;;;;;6.21;100.00;99908.28;4975027;28;19945;-90
2022/10/31 09:34:21;;;;;;;;;;;;;;;6.19;100.00;99913.63;4977717;28;19925;-85
2022/10/31 09:36:46;;;;;;;;;;;;;;;6.19;100.00;99911.00;4992696;28;19918;-84
2022/10/31 09:42:25;;;;;;;;;;;;;;;6.19;100.00;99905.72;4972206;28;19968;-84
2022/10/31 09:45:03;;;;;;;;;;;;;;;6.19;100.00;99892.56;4994906;28;19949;-84
2022/10/31 09:47:28;;;;;;;;;;;;;;;6.20;100.00;99883.75;4995621;28;19944;-84
2022/10/31 09:49:56;;;;;;;;;;;;;;;6.20;100.00;99882.91;4994430;28;20353;-83
2022/10/31 09:52:30;;;;;;;;;;;;;;;6.19;100.00;99889.94;4993194;28;19922;-84
2022/10/31 09:55:19;;;;;;;;;;;;;;;6.20;100.00;99883.75;4959314;28;19922;-86
2022/10/31 09:57:45;;;;;;;;;;;;;;;6.20;100.00;99890.78;4976738;28;19922;-84
2022/10/31 10:00:18;;;;;;;;;;;;;;;6.19;100.00;99895.19;4959631;28;19922;-83
2022/10/31 10:02:46;;;;;;;;;;;;;;;6.20;100.00;99883.75;4973865;28;19918;-85
2022/10/31 10:05:14;;;;;;;;;;;;;;;6.19;100.00;99876.78;4974814;28;19922;-83
2022/10/31 10:07:45;;;;;;;;;;;;;;;6.20;100.00;99875.84;4958218;28;19918;-84
2022/10/31 10:10:15;;;;;;;;;;;;;;;6.22;100.00;99876.69;4976684;28;19953;-84
2022/10/31 10:13:00;;;;;;;;;;;;;;;6.21;100.00;99882.88;4974868;28;20286;-85
2022/10/31 10:15:31;;;;;;;;;;;;;;;6.24;100.00;99882.78;4970668;28;20393;-85
2022/10/31 10:18:08;;;;;;;;;;;;;;;6.23;100.00;99882.84;4974326;28;19918;-85
2022/10/31 10:20:33;;;;;;;;;;;;;;;6.25;100.00;99875.75;4958252;28;19921;-84
2022/10/31 10:23:01;;;;;;;;;;;;;;;6.27;100.00;99879.22;4974235;28;20428;-84
2022/10/31 10:25:30;;;;;;;;;;;;;;;6.22;100.00;99875.81;4975830;28;19925;-85
2022/10/31 10:28:05;;;;;;;;;;;;;;;6.24;100.00;99890.69;4957424;28;19927;-84
2022/10/31 10:31:02;;;;;;;;;;;;;;;6.23;100.00;99894.22;4957490;28;19968;-85
2022/10/31 10:33:38;;;;;;;;;;;;;;;6.20;100.00;99891.66;4932200;28;19981;-93
2022/10/31 10:36:05;;;;;;;;;;;;;;;6.21;100.00;99885.50;4958902;28;19919;-84
2022/10/31 10:38:51;;;;;;;;;;;;;;;6.23;100.00;99881.06;4972899;28;20002;-84
2022/10/31 10:41:17;;;;;;;;;;;;;;;6.22;100.00;99884.56;4973457;28;19922;-84
2022/10/31 10:43:43;;;;;;;;;;;;;;;6.21;100.00;99882.88;4976203;28;19914;-85
2022/10/31 10:49:10;;;;;;;;;;;;;;;6.23;100.00;99886.31;4976115;28;19928;-85
2022/10/31 10:51:48;;;;;;;;;;;;;;;6.21;100.00;99874.09;4971890;28;19918;-83
2022/10/31 10:54:19;;;;;;;;;;;;;;;6.22;100.00;99873.19;4985573;28;19922;-84
2022/10/31 10:56:57;;;;;;;;;;;;;;;6.21;100.00;99853.03;4994552;28;19932;-84
2022/10/31 10:59:23;;;;;;;;;;;;;;;6.23;100.00;99856.50;4976867;28;20012;-87
2022/10/31 11:01:50;;;;;;;;;;;;;;;6.21;100.00;99838.13;4993755;28;20002;-84
2022/10/31 11:04:35;;;;;;;;;;;;;;;6.20;100.00;99839.03;4995021;28;19922;-85
2022/10/31 11:07:03;;;;;;;;;;;;;;;6.19;100.00;99853.09;4976518;28;19941;-84
2022/10/31 11:09:32;;;;;;;;;;;;;;;6.18;100.00;99857.47;4993673;28;19926;-91
2022/10/31 11:11:57;;;;;;;;;;;;;;;6.20;100.00;99862.69;4994292;28;20423;-84
2022/10/31 11:14:23;;;;;;;;;;;;;;;6.21;100.00;99858.28;4994798;28;19973;-84
2022/10/31 11:16:51;;;;;;;;;;;;;;;6.21;100.00;99856.56;4977525;28;19924;-84
2022/10/31 11:19:21;;;;;;;;;;;;;;;6.23;100.00;99851.25;4971967;28;19932;-84
2022/10/31 11:21:47;;;;;;;;;;;;;;;6.24;100.00;99843.31;4993629;28;20425;-84
2022/10/31 11:27:11;;;;;;;;;;;;;;;6.25;100.00;99810.81;4992044;28;19922;-85
2022/10/31 11:29:36;;;;;;;;;;;;;;;6.24;100.00;99816.13;4977130;28;19926;-86
2022/10/31 11:32:02;;;;;;;;;;;;;;;6.25;100.00;99808.19;5003856;28;19930;-84
2022/10/31 11:34:30;;;;;;;;;;;;;;;6.26;100.00;99794.16;4994727;28;19941;-91
2022/10/31 11:37:01;;;;;;;;;;;;;;;6.22;100.00;99818.78;4977419;28;20377;-88
2022/10/31 11:39:27;;;;;;;;;;;;;;;6.23;100.00;99830.19;4983382;28;19957;-84
2022/10/31 11:41:54;;;;;;;;;;;;;;;6.23;100.00;99824.94;4992962;28;20005;-88
2022/10/31 11:44:27;;;;;;;;;;;;;;;6.21;100.00;99811.81;4974357;28;19922;-85
2022/10/31 11:46:54;;;;;;;;;;;;;;;6.22;100.00;99810.03;4975079;28;20446;-82
2022/10/31 11:49:23;;;;;;;;;;;;;;;6.22;100.00;99807.41;4976470;28;19924;-90
2022/10/31 11:51:54;;;;;;;;;;;;;;;6.22;100.00;99797.75;4973721;28;19922;-87
2022/10/31 11:54:21;;;;;;;;;;;;;;;6.19;100.00;99800.47;4993621;28;19969;-85
2022/10/31 11:56:47;;;;;;;;;;;;;;;6.18;100.00;99796.09;4993726;28;20369;-83
2022/10/31 11:59:33;;;;;;;;;;;;;;;6.21;100.00;99792.50;4975194;28;19928;-88
2022/10/31 12:02:00;;;;;;;;;;;;;;;6.18;100.00;99782.94;4982673;28;20361;-86
2022/10/31 12:04:46;;;;;;;;;;;;;;;8.41;100.00;99772.00;4994458;28;20293;-84
2022/10/31 12:07:11;;;;;;;;;;;;;;;10.59;100.00;99764.59;4976349;28;20430;-87
2022/10/31 12:09:38;;;;;;;;;;;;;;;8.37;100.00;99769.47;4971505;28;19960;-87
2022/10/31 12:12:06;;;;;;;;;;;;;;;7.55;100.00;99762.50;4972164;28;20369;-88
2022/10/31 12:14:38;;;;;;;;;;;;;;;7.15;100.00;99758.38;4976694;28;19918;-88
2022/10/31 12:17:14;;;;;;;;;;;;;;;6.93;100.00;99759.03;4991124;28;19964;-87
2022/10/31 12:19:45;;;;;;;;;;;;;;;6.78;100.00;99754.19;4976616;28;19924;-87
2022/10/31 12:22:14;;;;;;;;;;;;;;;6.66;100.00;99729.91;4989105;28;19922;-88
2022/10/31 12:24:39;;;;;;;;;;;;;;;6.61;100.00;99730.97;4974759;28;19966;-88
2022/10/31 12:27:28;;;;;;;;;;;;;;;6.59;100.00;99727.50;4973773;28;20004;-88
2022/10/31 12:30:02;;;;;;;;;;;;;;;6.54;100.00;99735.50;4993667;28;19924;-88
2022/10/31 12:32:34;;;;;;;;;;;;;;;6.54;100.00;99727.59;4976369;28;19960;-87
2022/10/31 12:35:14;;;;;;;;;;;;;;;6.44;100.00;99721.72;4976414;28;20393;-90
2022/10/31 12:38:08;;;;;;;;;;;;;;;6.41;100.00;99720.97;4971361;28;20025;-90
2022/10/31 12:40:53;;;;;;;;;;;;;;;6.43;100.00;99714.75;4988606;28;19922;-91
2022/10/31 12:43:27;;;;;;;;;;;;;;;6.35;100.00;99695.66;4973960;28;19929;-89
2022/10/31 12:46:00;;;;;;;;;;;;;;;6.38;100.00;99697.34;4981201;28;19929;-88
2022/10/31 12:48:44;;;;;;;;;;;;;;;6.35;100.00;99690.38;4992798;28;20060;-87
2022/10/31 12:51:19;;;;;;;;;;;;;;;6.35;100.00;99675.50;4975357;28;19918;-88
2022/10/31 12:54:01;;;;;;;;;;;;;;;6.34;100.00;99663.22;4988403;28;19976;-85
2022/10/31 12:56:32;;;;;;;;;;;;;;;6.32;100.00;99653.66;4972035;28;20016;-88
2022/10/31 12:59:01;;;;;;;;;;;;;;;6.34;100.00;99652.69;4976299;28;20008;-86
2022/10/31 13:01:29;;;;;;;;;;;;;;;6.35;100.00;99629.88;4993429;28;19918;-87
2022/10/31 13:04:12;;;;;;;;;;;;;;;6.31;100.00;99623.84;4993872;28;19918;-87
2022/10/31 13:06:42;;;;;;;;;;;;;;;6.36;100.00;99647.38;4971625;28;19929;-88
2022/10/31 13:09:10;;;;;;;;;;;;;;;6.30;100.00;99674.75;4989235;28;20404;-90
2022/10/31 13:11:38;;;;;;;;;;;;;;;6.29;100.00;99654.59;4976030;28;19918;-87
2022/10/31 13:14:07;;;;;;;;;;;;;;;6.31;100.00;99646.66;4993584;28;19918;-87
2022/10/31 13:16:38;;;;;;;;;;;;;;;6.29;100.00;99654.59;4993175;28;19926;-87
2022/10/31 13:19:12;;;;;;;;;;;;;;;6.32;100.00;99651.03;4976536;28;19973;-94
2022/10/31 13:21:41;;;;;;;;;;;;;;;6.30;100.00;99637.03;5039471;23;20300;-86
2022/10/31 13:24:12;;;;;;;;;;;;;;;6.32;100.00;99649.25;4975803;28;20312;-87
2022/10/31 13:26:43;;;;;;;;;;;;;;;6.30;100.00;99645.81;4975169;28;20439;-88
2022/10/31 13:29:09;;;;;;;;;;;;;;;6.24;100.00;99651.25;4993140;28;19965;-87
2022/10/31 13:31:39;;;;;;;;;;;;;;;6.26;100.00;99643.31;4992561;28;19957;-91
2022/10/31 13:34:09;;;;;;;;;;;;;;;6.25;100.00;99624.00;4975062;28;19984;-86
2022/10/31 13:36:41;;;;;;;;;;;;;;;6.25;100.00;99618.72;4974001;28;19926;-86
2022/10/31 13:39:16;;;;;;;;;;;;;;;6.27;100.00;99602.91;4978808;28;19932;-86
2022/10/31 13:41:48;;;;;;;;;;;;;;;6.26;100.00;99591.53;4970527;28;19922;-87
2022/10/31 13:44:15;;;;;;;;;;;;;;;6.29;100.00;99578.28;4975201;28;20056;-87
2022/10/31 13:46:42;;;;;;;;;;;;;;;6.25;100.00;99584.53;4976889;28;20013;-87
2022/10/31 13:49:27;;;;;;;;;;;;;;;6.21;100.00;99601.31;4977081;28;19925;-85
2022/10/31 13:51:53;;;;;;;;;;;;;;;6.23;100.00;99588.97;4959434;28;19929;-87
2022/10/31 13:54:23;;;;;;;;;;;;;;;6.26;100.00;99590.69;4977880;28;19921;-86
2022/10/31 13:56:52;;;;;;;;;;;;;;;6.23;100.00;99581.09;4967217;28;19918;-89
2022/10/31 13:59:25;;;;;;;;;;;;;;;6.28;100.00;99571.28;4974614;28;19968;-86
2022/10/31 14:02:02;;;;;;;;;;;;;;;6.23;100.00;99574.97;4978104;28;20009;-85
2022/10/31 14:04:35;;;;;;;;;;;;;;;6.25;100.00;99560.84;4977512;28;19926;-87
2022/10/31 14:07:14;;;;;;;;;;;;;;;6.22;100.00;99584.63;4976354;28;19922;-84
2022/10/31 14:09:55;;;;;;;;;;;;;;;6.23;100.00;99622.34;4973348;28;19922;-94
2022/10/31 14:12:25;;;;;;;;;;;;;;;6.22;100.00;99624.09;4968087;28;19929;-87
2022/10/31 14:14:52;;;;;;;;;;;;;;;6.23;100.00;99583.72;4969172;28;19921;-90
2022/10/31 14:17:24;;;;;;;;;;;;;;;6.21;100.00;99561.84;4996358;28;19921;-86
2022/10/31 14:20:00;;;;;;;;;;;;;;;6.21;100.00;99566.22;4975890;28;19922;-87
2022/10/31 14:22:29;;;;;;;;;;;;;;;6.19;100.00;99555.78;4995395;28;19981;-85
2022/10/31 14:24:54;;;;;;;;;;;;;;;6.20;100.00;99568.03;4977369;28;19929;-86
2022/10/31 14:27:22;;;;;;;;;;;;;;;6.24;100.00;99553.88;4994663;28;19921;-86
2022/10/31 14:29:48;;;;;;;;;;;;;;;6.23;100.00;99536.34;4985617;28;19925;-87
2022/10/31 14:32:14;;;;;;;;;;;;;;;6.24;100.00;99538.09;4975556;28;19929;-87
2022/10/31 14:34:50;;;;;;;;;;;;;;;6.22;100.00;99534.63;4978030;28;19925;-87
2022/10/31 14:37:28;;;;;;;;;;;;;;;6.22;100.00;99534.63;4985343;28;20317;-86
2022/10/31 14:39:53;;;;;;;;;;;;;;;6.28;100.00;99523.91;4975120;28;20029;-88
2022/10/31 14:42:34;;;;;;;;;;;;;;;6.29;100.00;99535.31;4964806;28;20017;-86
2022/10/31 14:45:13;;;;;;;;;;;;;;;6.26;100.00;99543.31;4979094;28;19922;-86
2022/10/31 14:47:41;;;;;;;;;;;;;;;6.24;100.00;99534.56;4973542;28;20005;-84
2022/10/31 14:50:19;;;;;;;;;;;;;;;6.23;100.00;99536.34;4973634;28;19922;-86
2022/10/31 14:52:46;;;;;;;;;;;;;;;6.21;100.00;99532.91;4960856;28;20016;-85
2022/10/31 14:55:13;;;;;;;;;;;;;;;6.18;100.00;99531.22;4976833;28;19928;-87
2022/10/31 14:57:42;;;;;;;;;;;;;;;6.19;100.00;99513.69;4970858;28;19925;-86
2022/10/31 15:00:08;;;;;;;;;;;;;;;6.23;100.00;99533.72;4966608;28;19926;-87
2022/10/31 15:02:49;;;;;;;;;;;;;;;6.19;100.00;99521.59;4958471;28;19918;-86
2022/10/31 15:05:16;;;;;;;;;;;;;;;6.17;100.00;99515.47;4975849;28;19929;-85
2022/10/31 15:07:53;;;;;;;;;;;;;;;6.20;100.00;99528.56;4961248;28;20028;-85
2022/10/31 15:10:22;;;;;;;;;;;;;;;6.20;100.00;99536.44;4968818;28;19918;-87
2022/10/31 15:12:48;;;;;;;;;;;;;;;6.19;100.00;99526.84;4958390;28;19922;-87
2022/10/31 15:15:14;;;;;;;;;;;;;;;6.17;100.00;99541.78;4958309;28;19914;-85
2022/10/31 15:17:50;;;;;;;;;;;;;;;6.19;100.00;99545.25;4975456;28;20004;-87
2022/10/31 15:20:19;;;;;;;;;;;;;;;6.18;100.00;99501.44;4975495;28;19924;-87
2022/10/31 15:22:45;;;;;;;;;;;;;;;6.21;100.00;99514.50;4974247;28;19933;-85
2022/10/31 15:25:22;;;;;;;;;;;;;;;6.18;100.00;99522.47;4958039;28;20425;-86
2022/10/31 15:27:48;;;;;;;;;;;;;;;6.17;100.00;99520.75;4958006;28;19970;-86
2022/10/31 15:30:20;;;;;;;;;;;;;;;6.20;100.00;99515.41;4975282;28;20008;-91
2022/10/31 15:32:45;;;;;;;;;;;;;;;6.15;100.00;99517.31;4958002;28;19922;-85
2022/10/31 15:35:19;;;;;;;;;;;;;;;6.16;100.00;99519.91;4957748;28;19918;-86
2022/10/31 15:37:44;;;;;;;;;;;;;;;6.16;100.00;99521.66;4965990;28;20025;-85
2022/10/31 15:40:19;;;;;;;;;;;;;;;6.24;100.00;99516.16;4962875;28;19957;-86
2022/10/31 15:42:47;;;;;;;;;;;;;;;6.13;100.00;99519.13;4975017;28;19925;-87
2022/10/31 15:45:12;;;;;;;;;;;;;;;6.13;100.00;99519.13;4989815;28;19945;-87
2022/10/31 15:47:37;;;;;;;;;;;;;;;6.16;100.00;99532.19;4976770;28;19918;-87
2022/10/31 15:50:04;;;;;;;;;;;;;;;6.15;100.00;99527.81;4994341;28;19918;-86
2022/10/31 15:52:39;;;;;;;;;;;;;;;6.14;100.00;99524.34;4968184;28;19926;-86
2022/10/31 15:55:17;;;;;;;;;;;;;;;6.13;100.00;99532.28;4980785;28;19922;-87
2022/10/31 15:57:44;;;;;;;;;;;;;;;6.11;100.00;99527.06;4973760;28;20017;-86
2022/10/31 16:00:29;;;;;;;;;;;;;;;6.12;100.00;99522.66;4988497;28;19928;-86
2022/10/31 16:03:03;;;;;;;;;;;;;;;6.12;100.00;99520.03;4975481;28;19965;-86
2022/10/31 16:05:34;;;;;;;;;;;;;;;6.13;100.00;99521.75;4957473;28;20242;-86
2022/10/31 16:07:59;;;;;;;;;;;;;;;6.11;100.00;99520.91;4972294;28;20008;-86
2022/10/31 16:10:25;;;;;;;;;;;;;;;6.11;100.00;99510.41;4962262;28;20004;-87
2022/10/31 16:12:51;;;;;;;;;;;;;;;6.15;100.00;99515.53;4979910;28;20025;-86
2022/10/31 16:15:17;;;;;;;;;;;;;;;6.12;100.00;99517.41;4962240;28;20013;-87
2022/10/31 16:17:47;;;;;;;;;;;;;;;6.14;100.00;99520.84;4962834;28;19953;-85
2022/10/31 16:20:20;;;;;;;;;;;;;;;6.12;100.00;99514.75;4965592;28;19918;-90
2022/10/31 16:22:48;;;;;;;;;;;;;;;6.15;100.00;99512.91;4971046;28;19928;-88
2022/10/31 16:25:22;;;;;;;;;;;;;;;6.80;100.00;99510.94;4964107;28;19960;-87
2022/10/31 16:27:49;;;;;;;;;;;;;;;7.01;100.00;99514.66;4959536;28;19981;-86
2022/10/31 16:30:38;;;;;;;;;;;;;;;6.82;100.00;99518.81;4968924;28;19969;-92
2022/10/31 16:33:25;;;;;;;;;;;;;;;6.64;100.00;99515.84;4961908;28;19929;-87
2022/10/31 16:36:09;;;;;;;;;;;;;;;;;;;;;
2022/10/31 16:38:40;;;;;;;;;;;;;;;6.55;100.00;99521.38;4984155;28;19922;-95
2022/10/31 16:41:06;;;;;;;;;;;;;;;6.59;100.00;99522.13;4970026;28;19922;-87
2022/10/31 16:43:32;;;;;;;;;;;;;;;6.53;100.00;99525.84;4985873;28;20266;-84
2022/10/31 16:45:57;;;;;;;;;;;;;;;6.53;100.00;99524.06;4980130;28;19925;-86
2022/10/31 16:48:23;;;;;;;;;;;;;;;6.52;100.00;99522.31;4977799;28;19922;-86
2022/10/31 16:50:49;;;;;;;;;;;;;;;6.53;100.00;99525.84;4974209;28;19924;-86
2022/10/31 16:53:15;;;;;;;;;;;;;;;6.52;100.00;99517.06;4961550;28;19929;-87
2022/10/31 16:55:59;;;;;;;;;;;;;;;6.50;100.00;99510.97;4978002;28;19926;-90
2022/10/31 16:58:25;;;;;;;;;;;;;;;6.47;100.00;99515.50;4981723;28;19932;-86
2022/10/31 17:00:51;;;;;;;;;;;;;;;6.46;100.00;99516.38;4961935;28;20336;-86
2022/10/31 17:03:16;;;;;;;;;;;;;;;6.44;100.00;99513.81;4967917;28;20000;-86
2022/10/31 17:05:42;;;;;;;;;;;;;;;6.45;100.00;99519.94;4973790;28;19928;-86
2022/10/31 17:08:07;;;;;;;;;;;;;;;6.42;100.00;99525.31;4973498;28;19922;-87
2022/10/31 17:10:32;;;;;;;;;;;;;;;6.40;100.00;99506.03;4958681;28;19919;-86
2022/10/31 17:12:58;;;;;;;;;;;;;;;6.45;100.00;99514.69;4984315;28;20033;-85
2022/10/31 17:15:25;;;;;;;;;;;;;;;6.44;100.00;99518.22;4984369;28;19929;-87
2022/10/31 17:17:51;;;;;;;;;;;;;;;6.43;100.00;99527.00;4970980;28;20068;-86
2022/10/31 17:20:16;;;;;;;;;;;;;;;6.46;100.00;99525.16;4977466;28;19984;-90
2022/10/31 17:22:41;;;;;;;;;;;;;;;6.49;100.00;99532.09;4949066;28;20390;-86
2022/10/31 17:25:32;;;;;;;;;;;;;;;6.44;100.00;99523.47;4941196;29;20020;-94
2022/10/31 17:27:58;;;;;;;;;;;;;;;6.40;100.00;99533.25;4940791;29;19927;-88
2022/10/31 17:30:23;;;;;;;;;;;;;;;6.40;100.00;99527.97;4958149;29;19945;-86
2022/10/31 17:32:52;;;;;;;;;;;;;;;6.43;100.00;99527.88;4958000;29;20009;-86
2022/10/31 17:35:40;;;;;;;;;;;;;;;6.39;100.00;99526.25;4958008;29;19922;-90
2022/10/31 17:38:05;;;;;;;;;;;;;;;6.38;100.00;99524.50;4921268;28;20358;-88
2022/10/31 17:40:30;;;;;;;;;;;;;;;6.41;100.00;99519.16;4940744;29;19925;-88
2022/10/31 17:42:56;;;;;;;;;;;;;;;6.43;100.00;99519.09;4957890;29;20259;-85
2022/10/31 17:45:23;;;;;;;;;;;;;;;6.43;100.00;99519.09;4940649;29;19923;-85
2022/10/31 17:47:49;;;;;;;;;;;;;;;6.41;100.00;99513.03;4957930;29;19934;-89
2022/10/31 17:50:15;;;;;;;;;;;;;;;6.36;100.00;99514.03;4958385;29;19919;-86
2022/10/31 17:52:40;;;;;;;;;;;;;;;6.34;100.00;99513.22;4956248;29;20335;-84
2022/10/31 17:55:06;;;;;;;;;;;;;;;6.35;100.00;99511.44;4940388;29;19919;-84
2022/10/31 17:57:32;;;;;;;;;;;;;;;6.36;100.00;99516.66;4959122;28;20292;-88
2022/10/31 17:59:58;;;;;;;;;;;;;;;6.38;100.00;99513.13;4963464;28;19931;-88
2022/10/31 18:02:23;;;;;;;;;;;;;;;6.39;100.00;99509.59;4945940;28;20598;-86
2022/10/31 18:04:48;;;;;;;;;;;;;;;6.30;100.00;99511.59;4961552;28;20381;-85
2022/10/31 18:07:18;;;;;;;;;;;;;;;6.35;100.00;99512.31;4961922;28;19969;-87
2022/10/31 18:09:46;;;;;;;;;;;;;;;6.36;100.00;99514.03;4959173;28;19918;-89
2022/10/31 18:12:12;;;;;;;;;;;;;;;6.36;100.00;99511.41;4976826;28;20269;-88
2022/10/31 18:14:37;;;;;;;;;;;;;;;6.36;100.00;99508.75;4976720;28;19929;-86
2022/10/31 18:17:02;;;;;;;;;;;;;;;6.36;100.00;99511.41;4969321;28;20348;-86
2022/10/31 18:19:28;;;;;;;;;;;;;;;6.39;100.00;99510.44;4967764;28;19938;-87
2022/10/31 18:21:53;;;;;;;;;;;;;;;6.37;100.00;99507.00;4953293;28;20682;-86
2022/10/31 18:24:18;;;;;;;;;;;;;;;6.34;100.00;99512.38;4944152;28;20317;-86
2022/10/31 18:26:44;;;;;;;;;;;;;;;6.34;100.00;99510.59;4965606;28;19965;-90
2022/10/31 18:29:10;;;;;;;;;;;;;;;6.36;100.00;99513.16;4956296;28;20399;-86
2022/10/31 18:31:35;;;;;;;;;;;;;;;6.36;100.00;99505.28;4957076;29;19919;-86
2022/10/31 18:34:01;;;;;;;;;;;;;;;6.38;100.00;99511.34;4967383;28;20381;-87
2022/10/31 18:36:26;;;;;;;;;;;;;;;6.36;100.00;99500.88;4948739;29;19970;-86
2022/10/31 18:38:54;;;;;;;;;;;;;;;6.36;100.00;99506.13;4967770;28;19918;-90
2022/10/31 18:41:19;;;;;;;;;;;;;;;6.36;100.00;99492.97;4946702;29;19919;-85
2022/10/31 18:43:47;;;;;;;;;;;;;;;6.43;100.00;99498.06;4939816;29;19949;-91
2022/10/31 18:46:17;;;;;;;;;;;;;;;6.38;100.00;99498.19;4957609;29;19973;-93
2022/10/31 18:48:43;;;;;;;;;;;;;;;6.38;100.00;99487.66;4939467;29;19925;-87
2022/10/31 18:51:10;;;;;;;;;;;;;;;6.38;100.00;99487.66;4939513;29;19914;-86
2022/10/31 18:53:35;;;;;;;;;;;;;;;6.39;100.00;99486.75;4938475;29;19919;-88
2022/10/31 18:56:26;;;;;;;;;;;;;;;6.36;100.00;99485.06;4956784;29;19937;-94
2022/10/31 18:58:52;;;;;;;;;;;;;;;6.38;100.00;99497.34;4939481;29;19914;-86
2022/10/31 19:01:18;;;;;;;;;;;;;;;6.39;100.00;99486.75;4963491;28;19962;-87
2022/10/31 19:03:43;;;;;;;;;;;;;;;6.38;100.00;99476.28;4942849;29;19914;-88
2022/10/31 19:06:09;;;;;;;;;;;;;;;6.39;100.00;99478.03;4973394;28;20289;-87
2022/10/31 19:08:34;;;;;;;;;;;;;;;6.34;100.00;99465.84;4957328;28;20373;-85
2022/10/31 19:11:04;;;;;;;;;;;;;;;6.34;100.00;99478.16;4975541;28;19918;-90
2022/10/31 19:13:30;;;;;;;;;;;;;;;6.34;100.00;99465.84;4958279;28;19918;-84
2022/10/31 19:15:55;;;;;;;;;;;;;;;6.35;100.00;99467.59;4975454;28;20350;-93
2022/10/31 19:18:21;;;;;;;;;;;;;;;6.35;100.00;99466.69;4976215;28;19946;-85
2022/10/31 19:20:46;;;;;;;;;;;;;;;6.34;100.00;99467.63;4978000;28;19929;-84
2022/10/31 19:23:11;;;;;;;;;;;;;;;6.31;100.00;99459.81;4987730;28;20385;-87
2022/10/31 19:25:38;;;;;;;;;;;;;;;6.30;100.00;99456.34;4972366;28;19922;-84
2022/10/31 19:28:03;;;;;;;;;;;;;;;6.34;100.00;99454.47;4994577;28;20014;-86
2022/10/31 19:30:28;;;;;;;;;;;;;;;6.35;100.00;99459.69;4985873;28;20018;-85
2022/10/31 19:32:59;;;;;;;;;;;;;;;7.75;100.00;99450.63;4975111;28;19918;-94
2022/10/31 19:35:25;;;;;;;;;;;;;;;6.92;100.00;99449.09;4974688;28;19972;-88
2022/10/31 19:37:55;;;;;;;;;;;;;;;6.70;100.00;99452.44;4974278;28;19919;-92
2022/10/31 19:40:21;;;;;;;;;;;;;;;6.63;100.00;99456.19;4975763;28;19918;-88
2022/10/31 19:42:48;;;;;;;;;;;;;;;6.53;100.00;99450.34;4959166;28;19918;-88
2022/10/31 19:45:25;;;;;;;;;;;;;;;6.50;100.00;99449.59;4966160;28;19925;-88
2022/10/31 19:47:50;;;;;;;;;;;;;;;6.47;100.00;99444.41;4977338;28;20377;-87
2022/10/31 19:50:16;;;;;;;;;;;;;;;6.46;100.00;99447.94;4977898;28;19948;-86
2022/10/31 19:52:44;;;;;;;;;;;;;;;6.45;100.00;99454.16;4986961;28;20016;-87
2022/10/31 19:55:21;;;;;;;;;;;;;;;6.44;100.00;99444.50;4966653;28;20403;-89
2022/10/31 19:57:49;;;;;;;;;;;;;;;6.39;100.00;99441.19;4951092;29;19919;-87
2022/10/31 20:00:21;;;;;;;;;;;;;;;6.40;100.00;99442.88;4937283;29;19925;-88